Ferry Katsuragi — JI3611 — position and weather

sailwx.info

Track history (hours):
 
Tides and Currents Weather Stations Pressure Air Temp Water Temp Dewpoint Dewpoint Depression Visibility Wind Speed Wind Dir Waves Ship Positions

Ferry Katsuragi

Last reported at 2014-Oct-01 11:26 UTC. Time now 2014-Oct-01 14:19 UTC.
Position N 34°07' E 134°49'.

Length 108 m; draft 4 m.

Type: Passenger vessel. MMSI: 431301245.

Date/timePositionNaut miles runAvg speedWind from/ knotsBaromVisibWave heightAir tempDewpointWater temp
2014-Oct-01 11:26N 34°07' E 134°49'1214.2
2014-Oct-01 10:33N 34°11' E 135°03'5 5.0
2014-Oct-01 09:34N 34°13' E 135°09'10 2.5
2014-Oct-01 05:26N 34°09' E 134°57'1112.1
2014-Oct-01 04:33N 34°13' E 135°09'12 2.8
2014-Oct-01 00:21N 34°09' E 134°55'1114.3
2014-Sep-30 23:33N 34°13' E 135°08'2 1.9
2014-Sep-30 22:33N 34°13' E 135°06'18 5.3
2014-Sep-30 19:05N 34°06' E 134°45'1014.7
2014-Sep-30 18:26N 34°09' E 134°56'1112.4
2014-Sep-30 17:33N 34°13' E 135°09'0 0.0
2014-Sep-30 16:33N 34°13' E 135°09'0 0.0
2014-Sep-30 15:33N 34°13' E 135°09'6 5.8
2014-Sep-30 14:34N 34°12' E 135°02'12 3.8
2014-Sep-30 11:24N 34°07' E 134°48'1315.0
2014-Sep-30 10:34N 34°11' E 135°03'5 5.1
2014-Sep-30 09:34N 34°13' E 135°08'21 6.2
2014-Sep-30 06:12N 34°05' E 134°45'1014.3
2014-Sep-30 05:30N 34°08' E 134°56'1111.9
2014-Sep-30 04:33N 34°13' E 135°09'6 6.2
2014-Sep-30 03:33N 34°12' E 135°01'3 0.8
2014-Sep-30 00:06N 34°10' E 134°59'815.2
2014-Sep-29 23:33N 34°13' E 135°08'2 1.8
2014-Sep-29 22:33N 34°13' E 135°06'18 5.1
2014-Sep-29 19:03N 34°06' E 134°46'814.7
2014-Sep-29 18:32N 34°09' E 134°55'1212.6
2014-Sep-29 17:33N 34°13' E 135°09'0 0.0
2014-Sep-29 16:33N 34°13' E 135°09'0 0.0
2014-Sep-29 15:33N 34°13' E 135°09'5 5.1
2014-Sep-29 14:34N 34°11' E 135°03'0 0.0
2014-Sep-29 10:33N 34°11' E 135°03'5 5.0
2014-Sep-29 09:33N 34°13' E 135°08'20 5.6
2014-Sep-29 06:04N 34°06' E 134°46'814.7
2014-Sep-29 05:30N 34°09' E 134°55'1212.2
2014-Sep-29 04:33N 34°13' E 135°09'6 6.3
2014-Sep-29 03:33N 34°11' E 135°01'6 1.5
2014-Sep-28 23:33N 34°13' E 135°08'2 2.2
2014-Sep-28 22:33N 34°13' E 135°06'23 7.5
2014-Sep-28 19:27N 34°04' E 134°40'1314.4
2014-Sep-28 18:32N 34°09' E 134°55'1212.6
2014-Sep-28 17:33N 34°13' E 135°09'0 0.0
2014-Sep-28 16:33N 34°13' E 135°09'0 0.0
2014-Sep-28 15:33N 34°13' E 135°09'6 6.2
2014-Sep-28 14:34N 34°11' E 135°02'11 3.5
2014-Sep-28 11:26N 34°08' E 134°49'1214.0
2014-Sep-28 10:33N 34°12' E 135°03'5 4.8
2014-Sep-28 09:34N 34°13' E 135°09'19 5.6
2014-Sep-28 06:04N 34°07' E 134°46'1114.8
2014-Sep-28 05:20N 34°11' E 134°58'911.3
2014-Sep-28 04:33N 34°13' E 135°09'7 6.6
2014-Sep-28 03:31N 34°12' E 135°00'2 0.5
2014-Sep-28 00:06N 34°12' E 134°59'814.4
2014-Sep-27 23:34N 34°13' E 135°08'2 2.2
2014-Sep-27 22:34N 34°13' E 135°05'18 5.4
2014-Sep-27 19:07N 34°05' E 134°45'914.6
2014-Sep-27 18:31N 34°09' E 134°55'1212.6
2014-Sep-27 17:33N 34°13' E 135°09'0 0.0
2014-Sep-27 16:33N 34°13' E 135°09'0 0.0
2014-Sep-27 15:33N 34°13' E 135°09'6 6.0
2014-Sep-27 14:33N 34°12' E 135°02'11 3.5
2014-Sep-27 11:26N 34°08' E 134°49'1213.9
2014-Sep-27 10:33N 34°12' E 135°03'4 4.4
2014-Sep-27 09:34N 34°13' E 135°08'24 7.7
2014-Sep-27 06:25N 34°04' E 134°41'1314.4
2014-Sep-27 05:30N 34°09' E 134°55'1112.2
2014-Sep-27 04:33N 34°13' E 135°09'6 6.2
2014-Sep-27 03:33N 34°11' E 135°02'5 1.5
2014-Sep-27 00:17N 34°10' E 134°56'1114.7
2014-Sep-26 23:34N 34°13' E 135°08'2 1.6
2014-Sep-26 22:33N 34°13' E 135°06'20 5.8
2014-Sep-26 19:10N 34°05' E 134°45'914.5
2014-Sep-26 18:31N 34°08' E 134°55'1212.7
2014-Sep-26 17:33N 34°13' E 135°09'0 0.0
2014-Sep-26 16:33N 34°13' E 135°09'0 0.0
2014-Sep-26 15:33N 34°13' E 135°09'5 5.3
2014-Sep-26 14:34N 34°12' E 135°02'11 3.3
2014-Sep-26 11:20N 34°08' E 134°50'1114.5
2014-Sep-26 10:33N 34°12' E 135°03'4 4.4
2014-Sep-26 09:33N 34°13' E 135°08'20 5.9
2014-Sep-26 06:05N 34°06' E 134°45'1115.1
2014-Sep-26 05:22N 34°10' E 134°58'1012.0
2014-Sep-26 04:33N 34°13' E 135°09'7 6.7
2014-Sep-26 03:33N 34°10' E 135°01'4 1.2
2014-Sep-26 00:14N 34°10' E 134°56'1014.9
2014-Sep-25 23:34N 34°13' E 135°08'2 2.2
2014-Sep-25 22:33N 34°13' E 135°05'19 5.6
2014-Sep-25 19:10N 34°05' E 134°45'914.5
2014-Sep-25 18:31N 34°08' E 134°55'1212.5
2014-Sep-25 17:33N 34°13' E 135°09'0 0.0
2014-Sep-25 16:33N 34°13' E 135°09'0 0.0
2014-Sep-25 15:33N 34°13' E 135°09'6 6.1
2014-Sep-25 14:33N 34°11' E 135°02'11 3.6
2014-Sep-25 11:25N 34°07' E 134°49'1214.1
2014-Sep-25 10:32N 34°12' E 135°03'5 4.9
2014-Sep-25 09:33N 34°13' E 135°08'21 6.1
2014-Sep-25 06:06N 34°05' E 134°45'815.0
2014-Sep-25 05:34N 34°07' E 134°54'1313.1
2014-Sep-25 04:34N 34°13' E 135°09'6 6.4
2014-Sep-25 03:33N 34°10' E 135°02'7 2.4
2014-Sep-25 00:26N 34°07' E 134°54'1315.0
2014-Sep-24 23:34N 34°13' E 135°08'2 1.6
2014-Sep-24 22:33N 34°13' E 135°06'1915.6
2014-Sep-24 21:21N 34°04' E 134°46'1 0.7
2014-Sep-24 19:10N 34°05' E 134°45'1213.9
2014-Sep-24 18:20N 34°09' E 134°59'911.9
2014-Sep-24 17:33N 34°13' E 135°09'0 0.0
2014-Sep-24 16:33N 34°13' E 135°09'0 0.0
2014-Sep-24 15:33N 34°13' E 135°09'6 5.8
2014-Sep-24 14:33N 34°13' E 135°02'12 3.7
2014-Sep-24 11:22N 34°07' E 134°49'1214.7
2014-Sep-24 10:33N 34°12' E 135°03'5 4.8
2014-Sep-24 09:33N 34°13' E 135°08'20 5.7
2014-Sep-24 06:08N 34°06' E 134°46'914.0
2014-Sep-24 05:27N 34°09' E 134°57'1111.9
2014-Sep-24 04:33N 34°13' E 135°09'6 6.0
2014-Sep-24 03:33N 34°12' E 135°01'2 0.5
2014-Sep-24 00:03N 34°11' E 134°59'714.9
2014-Sep-23 23:33N 34°13' E 135°08'2 1.8
2014-Sep-23 22:33N 34°13' E 135°06'18 5.2
2014-Sep-23 19:06N 34°06' E 134°46'814.4
2014-Sep-23 18:31N 34°09' E 134°55'1212.2
2014-Sep-23 17:33N 34°13' E 135°09'0 0.0
2014-Sep-23 16:33N 34°13' E 135°09'0 0.0
2014-Sep-23 15:33N 34°13' E 135°09'6 5.6
2014-Sep-23 14:33N 34°12' E 135°02'13 4.2
2014-Sep-23 11:29N 34°07' E 134°48'1314.3
2014-Sep-23 10:33N 34°12' E 135°03'5 5.1
2014-Sep-23 09:34N 34°13' E 135°09'25 7.8
2014-Sep-23 06:24N 34°04' E 134°41'1514.6
2014-Sep-23 05:23N 34°10' E 134°57'1012.0
2014-Sep-23 04:33N 34°13' E 135°09'6 6.4
2014-Sep-23 03:33N 34°11' E 135°01'4 1.1
2014-Sep-23 00:12N 34°10' E 134°57'914.9
2014-Sep-22 23:34N 34°13' E 135°08'2 2.3
2014-Sep-22 22:33N 34°13' E 135°05'20 6.0
2014-Sep-22 19:16N 34°05' E 134°43'1214.5
2014-Sep-22 18:28N 34°10' E 134°56'1111.9
2014-Sep-22 17:33N 34°13' E 135°09'0 0.0
2014-Sep-22 16:33N 34°13' E 135°09'0 0.0
2014-Sep-22 15:33N 34°13' E 135°09'6 6.1
2014-Sep-22 14:33N 34°11' E 135°02'1 0.3
2014-Sep-22 10:33N 34°11' E 135°03'5 5.0
2014-Sep-22 09:33N 34°13' E 135°08'25 8.3
2014-Sep-22 06:30N 34°04' E 134°40'1614.3
2014-Sep-22 05:22N 34°11' E 134°58'911.5
2014-Sep-22 04:33N 34°13' E 135°09'7 6.5
2014-Sep-22 03:31N 34°10' E 135°01'3 0.9
2014-Sep-22 00:11N 34°11' E 134°57'914.3
2014-Sep-21 23:33N 34°13' E 135°08'2 2.1
2014-Sep-21 22:33N 34°13' E 135°06'1815.3
2014-Sep-21 21:24N 34°06' E 134°46'0 0.1
2014-Sep-21 19:06N 34°06' E 134°46'914.3
2014-Sep-21 18:27N 34°09' E 134°56'1112.2
2014-Sep-21 17:33N 34°13' E 135°09'0 0.0
2014-Sep-21 16:33N 34°13' E 135°09'0 0.0
2014-Sep-21 15:33N 34°13' E 135°09'6 6.2
2014-Sep-21 14:33N 34°11' E 135°02'13 4.3
2014-Sep-21 11:30N 34°07' E 134°47'  
Track history (hours):
 
Tides and Currents Weather Stations Pressure Air Temp Water Temp Dewpoint Dewpoint Depression Visibility Wind Speed Wind Dir Waves Ship Positions

Ferry Katsuragi

Last reported at 2014-Oct-01 11:26 UTC. Time now 2014-Oct-01 14:19 UTC.
Position N 34°07' E 134°49'.

Length 108 m; draft 4 m.

Type: Passenger vessel. MMSI: 431301245.

Date/timePositionNaut miles runAvg speedWind from/ knotsBaromVisibWave heightAir tempDewpointWater temp
2014-Oct-01 11:26N 34°07' E 134°49'1214.2
2014-Oct-01 10:33N 34°11' E 135°03'5 5.0
2014-Oct-01 09:34N 34°13' E 135°09'10 2.5
2014-Oct-01 05:26N 34°09' E 134°57'1112.1
2014-Oct-01 04:33N 34°13' E 135°09'12 2.8
2014-Oct-01 00:21N 34°09' E 134°55'1114.3
2014-Sep-30 23:33N 34°13' E 135°08'2 1.9
2014-Sep-30 22:33N 34°13' E 135°06'18 5.3
2014-Sep-30 19:05N 34°06' E 134°45'1014.7
2014-Sep-30 18:26N 34°09' E 134°56'1112.4
2014-Sep-30 17:33N 34°13' E 135°09'0 0.0
2014-Sep-30 16:33N 34°13' E 135°09'0 0.0
2014-Sep-30 15:33N 34°13' E 135°09'6 5.8
2014-Sep-30 14:34N 34°12' E 135°02'12 3.8
2014-Sep-30 11:24N 34°07' E 134°48'1315.0
2014-Sep-30 10:34N 34°11' E 135°03'5 5.1
2014-Sep-30 09:34N 34°13' E 135°08'21 6.2
2014-Sep-30 06:12N 34°05' E 134°45'1014.3
2014-Sep-30 05:30N 34°08' E 134°56'1111.9
2014-Sep-30 04:33N 34°13' E 135°09'6 6.2
2014-Sep-30 03:33N 34°12' E 135°01'3 0.8
2014-Sep-30 00:06N 34°10' E 134°59'815.2
2014-Sep-29 23:33N 34°13' E 135°08'2 1.8
2014-Sep-29 22:33N 34°13' E 135°06'18 5.1
2014-Sep-29 19:03N 34°06' E 134°46'814.7
2014-Sep-29 18:32N 34°09' E 134°55'1212.6
2014-Sep-29 17:33N 34°13' E 135°09'0 0.0
2014-Sep-29 16:33N 34°13' E 135°09'0 0.0
2014-Sep-29 15:33N 34°13' E 135°09'5 5.1
2014-Sep-29 14:34N 34°11' E 135°03'0 0.0
2014-Sep-29 10:33N 34°11' E 135°03'5 5.0
2014-Sep-29 09:33N 34°13' E 135°08'20 5.6
2014-Sep-29 06:04N 34°06' E 134°46'814.7
2014-Sep-29 05:30N 34°09' E 134°55'1212.2
2014-Sep-29 04:33N 34°13' E 135°09'6 6.3
2014-Sep-29 03:33N 34°11' E 135°01'6 1.5
2014-Sep-28 23:33N 34°13' E 135°08'2 2.2
2014-Sep-28 22:33N 34°13' E 135°06'23 7.5
2014-Sep-28 19:27N 34°04' E 134°40'1314.4
2014-Sep-28 18:32N 34°09' E 134°55'1212.6
2014-Sep-28 17:33N 34°13' E 135°09'0 0.0
2014-Sep-28 16:33N 34°13' E 135°09'0 0.0
2014-Sep-28 15:33N 34°13' E 135°09'6 6.2
2014-Sep-28 14:34N 34°11' E 135°02'11 3.5
2014-Sep-28 11:26N 34°08' E 134°49'1214.0
2014-Sep-28 10:33N 34°12' E 135°03'5 4.8
2014-Sep-28 09:34N 34°13' E 135°09'19 5.6
2014-Sep-28 06:04N 34°07' E 134°46'1114.8
2014-Sep-28 05:20N 34°11' E 134°58'911.3
2014-Sep-28 04:33N 34°13' E 135°09'7 6.6
2014-Sep-28 03:31N 34°12' E 135°00'2 0.5
2014-Sep-28 00:06N 34°12' E 134°59'814.4
2014-Sep-27 23:34N 34°13' E 135°08'2 2.2
2014-Sep-27 22:34N 34°13' E 135°05'18 5.4
2014-Sep-27 19:07N 34°05' E 134°45'914.6
2014-Sep-27 18:31N 34°09' E 134°55'1212.6
2014-Sep-27 17:33N 34°13' E 135°09'0 0.0
2014-Sep-27 16:33N 34°13' E 135°09'0 0.0
2014-Sep-27 15:33N 34°13' E 135°09'6 6.0
2014-Sep-27 14:33N 34°12' E 135°02'11 3.5
2014-Sep-27 11:26N 34°08' E 134°49'1213.9
2014-Sep-27 10:33N 34°12' E 135°03'4 4.4
2014-Sep-27 09:34N 34°13' E 135°08'24 7.7
2014-Sep-27 06:25N 34°04' E 134°41'1314.4
2014-Sep-27 05:30N 34°09' E 134°55'1112.2
2014-Sep-27 04:33N 34°13' E 135°09'6 6.2
2014-Sep-27 03:33N 34°11' E 135°02'5 1.5
2014-Sep-27 00:17N 34°10' E 134°56'1114.7
2014-Sep-26 23:34N 34°13' E 135°08'2 1.6
2014-Sep-26 22:33N 34°13' E 135°06'20 5.8
2014-Sep-26 19:10N 34°05' E 134°45'914.5
2014-Sep-26 18:31N 34°08' E 134°55'1212.7
2014-Sep-26 17:33N 34°13' E 135°09'0 0.0
2014-Sep-26 16:33N 34°13' E 135°09'0 0.0
2014-Sep-26 15:33N 34°13' E 135°09'5 5.3
2014-Sep-26 14:34N 34°12' E 135°02'11 3.3
2014-Sep-26 11:20N 34°08' E 134°50'1114.5
2014-Sep-26 10:33N 34°12' E 135°03'4 4.4
2014-Sep-26 09:33N 34°13' E 135°08'20 5.9
2014-Sep-26 06:05N 34°06' E 134°45'1115.1
2014-Sep-26 05:22N 34°10' E 134°58'1012.0
2014-Sep-26 04:33N 34°13' E 135°09'7 6.7
2014-Sep-26 03:33N 34°10' E 135°01'4 1.2
2014-Sep-26 00:14N 34°10' E 134°56'1014.9
2014-Sep-25 23:34N 34°13' E 135°08'2 2.2
2014-Sep-25 22:33N 34°13' E 135°05'19 5.6
2014-Sep-25 19:10N 34°05' E 134°45'914.5
2014-Sep-25 18:31N 34°08' E 134°55'1212.5
2014-Sep-25 17:33N 34°13' E 135°09'0 0.0
2014-Sep-25 16:33N 34°13' E 135°09'0 0.0
2014-Sep-25 15:33N 34°13' E 135°09'6 6.1
2014-Sep-25 14:33N 34°11' E 135°02'11 3.6
2014-Sep-25 11:25N 34°07' E 134°49'1214.1
2014-Sep-25 10:32N 34°12' E 135°03'5 4.9
2014-Sep-25 09:33N 34°13' E 135°08'21 6.1
2014-Sep-25 06:06N 34°05' E 134°45'815.0
2014-Sep-25 05:34N 34°07' E 134°54'1313.1
2014-Sep-25 04:34N 34°13' E 135°09'6 6.4
2014-Sep-25 03:33N 34°10' E 135°02'7 2.4
2014-Sep-25 00:26N 34°07' E 134°54'1315.0
2014-Sep-24 23:34N 34°13' E 135°08'2 1.6
2014-Sep-24 22:33N 34°13' E 135°06'1915.6
2014-Sep-24 21:21N 34°04' E 134°46'1 0.7
2014-Sep-24 19:10N 34°05' E 134°45'1213.9
2014-Sep-24 18:20N 34°09' E 134°59'911.9
2014-Sep-24 17:33N 34°13' E 135°09'0 0.0
2014-Sep-24 16:33N 34°13' E 135°09'0 0.0
2014-Sep-24 15:33N 34°13' E 135°09'6 5.8
2014-Sep-24 14:33N 34°13' E 135°02'12 3.7
2014-Sep-24 11:22N 34°07' E 134°49'1214.7
2014-Sep-24 10:33N 34°12' E 135°03'5 4.8
2014-Sep-24 09:33N 34°13' E 135°08'20 5.7
2014-Sep-24 06:08N 34°06' E 134°46'914.0
2014-Sep-24 05:27N 34°09' E 134°57'1111.9
2014-Sep-24 04:33N 34°13' E 135°09'6 6.0
2014-Sep-24 03:33N 34°12' E 135°01'2 0.5
2014-Sep-24 00:03N 34°11' E 134°59'714.9
2014-Sep-23 23:33N 34°13' E 135°08'2 1.8
2014-Sep-23 22:33N 34°13' E 135°06'18 5.2
2014-Sep-23 19:06N 34°06' E 134°46'814.4
2014-Sep-23 18:31N 34°09' E 134°55'1212.2
2014-Sep-23 17:33N 34°13' E 135°09'0 0.0
2014-Sep-23 16:33N 34°13' E 135°09'0 0.0
2014-Sep-23 15:33N 34°13' E 135°09'6 5.6
2014-Sep-23 14:33N 34°12' E 135°02'13 4.2
2014-Sep-23 11:29N 34°07' E 134°48'1314.3
2014-Sep-23 10:33N 34°12' E 135°03'5 5.1
2014-Sep-23 09:34N 34°13' E 135°09'25 7.8
2014-Sep-23 06:24N 34°04' E 134°41'1514.6
2014-Sep-23 05:23N 34°10' E 134°57'1012.0
2014-Sep-23 04:33N 34°13' E 135°09'6 6.4
2014-Sep-23 03:33N 34°11' E 135°01'4 1.1
2014-Sep-23 00:12N 34°10' E 134°57'914.9
2014-Sep-22 23:34N 34°13' E 135°08'2 2.3
2014-Sep-22 22:33N 34°13' E 135°05'20 6.0
2014-Sep-22 19:16N 34°05' E 134°43'1214.5
2014-Sep-22 18:28N 34°10' E 134°56'1111.9
2014-Sep-22 17:33N 34°13' E 135°09'0 0.0
2014-Sep-22 16:33N 34°13' E 135°09'0 0.0
2014-Sep-22 15:33N 34°13' E 135°09'6 6.1
2014-Sep-22 14:33N 34°11' E 135°02'1 0.3
2014-Sep-22 10:33N 34°11' E 135°03'5 5.0
2014-Sep-22 09:33N 34°13' E 135°08'25 8.3
2014-Sep-22 06:30N 34°04' E 134°40'1614.3
2014-Sep-22 05:22N 34°11' E 134°58'911.5
2014-Sep-22 04:33N 34°13' E 135°09'7 6.5
2014-Sep-22 03:31N 34°10' E 135°01'3 0.9
2014-Sep-22 00:11N 34°11' E 134°57'914.3
2014-Sep-21 23:33N 34°13' E 135°08'2 2.1
2014-Sep-21 22:33N 34°13' E 135°06'1815.3
2014-Sep-21 21:24N 34°06' E 134°46'0 0.1
2014-Sep-21 19:06N 34°06' E 134°46'914.3
2014-Sep-21 18:27N 34°09' E 134°56'1112.2
2014-Sep-21 17:33N 34°13' E 135°09'0 0.0
2014-Sep-21 16:33N 34°13' E 135°09'0 0.0
2014-Sep-21 15:33N 34°13' E 135°09'6 6.2
2014-Sep-21 14:33N 34°11' E 135°02'13 4.3
2014-Sep-21 11:30N 34°07' E 134°47'  

Dump ship's entire track history